sensor_id;sensor_type;location;lat;lon;timestamp;temperature;humidity
34646;DHT22;20857;47.808;12.482;2023-04-25T00:00:22;8.50;99.90
34646;DHT22;20857;47.808;12.482;2023-04-25T00:02:47;7.70;99.90
34646;DHT22;20857;47.808;12.482;2023-04-25T00:05:13;8.30;99.90
34646;DHT22;20857;47.808;12.482;2023-04-25T00:07:40;7.50;99.90
34646;DHT22;20857;47.808;12.482;2023-04-25T00:10:08;7.40;99.90
34646;DHT22;20857;47.808;12.482;2023-04-25T00:12:33;7.40;99.90
34646;DHT22;20857;47.808;12.482;2023-04-25T00:14:59;8.40;99.90
34646;DHT22;20857;47.808;12.482;2023-04-25T00:17:25;7.80;99.90
34646;DHT22;20857;47.808;12.482;2023-04-25T00:19:50;7.40;99.90
34646;DHT22;20857;47.808;12.482;2023-04-25T00:22:16;9.20;99.90
34646;DHT22;20857;47.808;12.482;2023-04-25T00:24:42;7.90;99.90
34646;DHT22;20857;47.808;12.482;2023-04-25T00:27:08;7.20;99.90
34646;DHT22;20857;47.808;12.482;2023-04-25T00:29:33;8.50;99.90
34646;DHT22;20857;47.808;12.482;2023-04-25T00:31:59;7.30;99.90
34646;DHT22;20857;47.808;12.482;2023-04-25T00:34:25;8.60;99.90
34646;DHT22;20857;47.808;12.482;2023-04-25T00:36:51;7.20;99.90
34646;DHT22;20857;47.808;12.482;2023-04-25T00:39:16;9.30;99.90
34646;DHT22;20857;47.808;12.482;2023-04-25T00:41:42;9.30;99.90
34646;DHT22;20857;47.808;12.482;2023-04-25T00:44:08;7.40;99.90
34646;DHT22;20857;47.808;12.482;2023-04-25T00:46:36;7.40;99.90
34646;DHT22;20857;47.808;12.482;2023-04-25T00:49:02;9.20;99.90
34646;DHT22;20857;47.808;12.482;2023-04-25T00:51:27;9.40;99.90
34646;DHT22;20857;47.808;12.482;2023-04-25T00:53:53;7.80;99.90
34646;DHT22;20857;47.808;12.482;2023-04-25T00:56:19;7.50;99.90
34646;DHT22;20857;47.808;12.482;2023-04-25T00:58:45;7.40;99.90
34646;DHT22;20857;47.808;12.482;2023-04-25T01:01:10;9.00;99.90
34646;DHT22;20857;47.808;12.482;2023-04-25T01:03:37;9.90;99.90
34646;DHT22;20857;47.808;12.482;2023-04-25T01:06:09;10.20;99.90
34646;DHT22;20857;47.808;12.482;2023-04-25T01:08:35;7.50;99.90
34646;DHT22;20857;47.808;12.482;2023-04-25T01:11:01;7.50;99.90
34646;DHT22;20857;47.808;12.482;2023-04-25T01:13:27;7.40;99.90
34646;DHT22;20857;47.808;12.482;2023-04-25T01:15:52;7.50;99.90
34646;DHT22;20857;47.808;12.482;2023-04-25T01:18:18;9.70;99.90
34646;DHT22;20857;47.808;12.482;2023-04-25T01:20:44;9.00;99.90
34646;DHT22;20857;47.808;12.482;2023-04-25T01:23:11;7.50;99.90
34646;DHT22;20857;47.808;12.482;2023-04-25T01:25:36;7.50;99.90
34646;DHT22;20857;47.808;12.482;2023-04-25T01:28:02;7.50;99.90
34646;DHT22;20857;47.808;12.482;2023-04-25T01:30:28;7.50;99.90
34646;DHT22;20857;47.808;12.482;2023-04-25T01:32:55;7.50;99.90
34646;DHT22;20857;47.808;12.482;2023-04-25T01:35:20;7.50;99.90
34646;DHT22;20857;47.808;12.482;2023-04-25T01:37:47;7.90;99.90
34646;DHT22;20857;47.808;12.482;2023-04-25T01:40:13;9.90;99.90
34646;DHT22;20857;47.808;12.482;2023-04-25T01:42:39;8.30;99.90
34646;DHT22;20857;47.808;12.482;2023-04-25T01:45:05;9.50;99.90
34646;DHT22;20857;47.808;12.482;2023-04-25T01:47:31;7.50;99.90
34646;DHT22;20857;47.808;12.482;2023-04-25T01:49:57;7.50;99.90
34646;DHT22;20857;47.808;12.482;2023-04-25T01:52:22;7.50;99.90
34646;DHT22;20857;47.808;12.482;2023-04-25T01:54:48;7.40;99.90
34646;DHT22;20857;47.808;12.482;2023-04-25T01:57:14;8.30;99.90
34646;DHT22;20857;47.808;12.482;2023-04-25T01:59:40;7.60;99.90
34646;DHT22;20857;47.808;12.482;2023-04-25T02:02:06;7.60;99.90
34646;DHT22;20857;47.808;12.482;2023-04-25T02:04:31;9.10;99.90
34646;DHT22;20857;47.808;12.482;2023-04-25T02:06:57;7.50;99.90
34646;DHT22;20857;47.808;12.482;2023-04-25T02:09:25;7.50;99.90
34646;DHT22;20857;47.808;12.482;2023-04-25T02:11:50;7.50;99.90
34646;DHT22;20857;47.808;12.482;2023-04-25T02:14:15;7.50;99.90
34646;DHT22;20857;47.808;12.482;2023-04-25T02:16:41;8.00;99.90
34646;DHT22;20857;47.808;12.482;2023-04-25T02:19:09;7.50;99.90
34646;DHT22;20857;47.808;12.482;2023-04-25T02:21:35;7.50;99.90
34646;DHT22;20857;47.808;12.482;2023-04-25T02:24:01;7.40;99.90
34646;DHT22;20857;47.808;12.482;2023-04-25T02:26:26;7.40;99.90
34646;DHT22;20857;47.808;12.482;2023-04-25T02:28:52;9.70;99.90
34646;DHT22;20857;47.808;12.482;2023-04-25T02:31:17;7.70;99.90
34646;DHT22;20857;47.808;12.482;2023-04-25T02:33:43;7.60;99.90
34646;DHT22;20857;47.808;12.482;2023-04-25T02:36:09;9.60;99.90
34646;DHT22;20857;47.808;12.482;2023-04-25T02:38:35;7.30;99.90
34646;DHT22;20857;47.808;12.482;2023-04-25T02:41:00;8.60;99.90
34646;DHT22;20857;47.808;12.482;2023-04-25T02:43:26;9.60;99.90
34646;DHT22;20857;47.808;12.482;2023-04-25T02:45:51;7.10;99.90
34646;DHT22;20857;47.808;12.482;2023-04-25T02:48:17;6.90;99.90
34646;DHT22;20857;47.808;12.482;2023-04-25T02:50:42;9.20;99.90
34646;DHT22;20857;47.808;12.482;2023-04-25T02:53:08;6.80;99.90
34646;DHT22;20857;47.808;12.482;2023-04-25T02:55:33;6.90;99.90
34646;DHT22;20857;47.808;12.482;2023-04-25T03:01:02;6.90;99.90
34646;DHT22;20857;47.808;12.482;2023-04-25T03:03:27;6.90;99.90
34646;DHT22;20857;47.808;12.482;2023-04-25T03:05:52;9.50;99.90
34646;DHT22;20857;47.808;12.482;2023-04-25T03:08:18;7.10;99.90
34646;DHT22;20857;47.808;12.482;2023-04-25T03:10:44;7.10;99.90
34646;DHT22;20857;47.808;12.482;2023-04-25T03:13:09;9.00;99.90
34646;DHT22;20857;47.808;12.482;2023-04-25T03:15:35;8.80;99.90
34646;DHT22;20857;47.808;12.482;2023-04-25T03:18:01;7.20;99.90
34646;DHT22;20857;47.808;12.482;2023-04-25T03:20:27;7.20;99.90
34646;DHT22;20857;47.808;12.482;2023-04-25T03:22:52;7.20;99.90
34646;DHT22;20857;47.808;12.482;2023-04-25T03:25:17;7.20;99.90
34646;DHT22;20857;47.808;12.482;2023-04-25T03:27:43;10.10;99.90
34646;DHT22;20857;47.808;12.482;2023-04-25T03:30:08;7.30;99.90
34646;DHT22;20857;47.808;12.482;2023-04-25T03:32:34;7.30;99.90
34646;DHT22;20857;47.808;12.482;2023-04-25T03:35:00;7.90;99.90
34646;DHT22;20857;47.808;12.482;2023-04-25T03:37:26;8.30;99.90
34646;DHT22;20857;47.808;12.482;2023-04-25T03:39:51;7.70;99.90
34646;DHT22;20857;47.808;12.482;2023-04-25T03:42:16;7.40;99.90
34646;DHT22;20857;47.808;12.482;2023-04-25T03:44:42;7.40;99.90
34646;DHT22;20857;47.808;12.482;2023-04-25T03:47:08;7.40;99.90
34646;DHT22;20857;47.808;12.482;2023-04-25T03:49:33;8.90;99.90
34646;DHT22;20857;47.808;12.482;2023-04-25T03:51:59;7.40;99.90
34646;DHT22;20857;47.808;12.482;2023-04-25T03:54:25;7.40;99.90
34646;DHT22;20857;47.808;12.482;2023-04-25T03:56:51;7.30;99.90
34646;DHT22;20857;47.808;12.482;2023-04-25T04:02:19;7.40;99.90
34646;DHT22;20857;47.808;12.482;2023-04-25T04:04:45;7.40;99.90
34646;DHT22;20857;47.808;12.482;2023-04-25T04:07:10;7.40;99.90
34646;DHT22;20857;47.808;12.482;2023-04-25T04:09:36;9.00;99.90
34646;DHT22;20857;47.808;12.482;2023-04-25T04:12:01;7.30;99.90
34646;DHT22;20857;47.808;12.482;2023-04-25T04:14:27;7.30;99.90
34646;DHT22;20857;47.808;12.482;2023-04-25T04:16:53;7.30;99.90
34646;DHT22;20857;47.808;12.482;2023-04-25T04:19:18;8.20;99.90
34646;DHT22;20857;47.808;12.482;2023-04-25T04:21:44;7.20;99.90
34646;DHT22;20857;47.808;12.482;2023-04-25T04:24:09;7.30;99.90
34646;DHT22;20857;47.808;12.482;2023-04-25T04:26:35;7.30;99.90
34646;DHT22;20857;47.808;12.482;2023-04-25T04:29:02;7.10;99.90
34646;DHT22;20857;47.808;12.482;2023-04-25T04:31:28;8.80;99.90
34646;DHT22;20857;47.808;12.482;2023-04-25T04:33:53;9.10;99.90
34646;DHT22;20857;47.808;12.482;2023-04-25T04:36:19;7.40;99.90
34646;DHT22;20857;47.808;12.482;2023-04-25T04:38:48;7.50;99.90
34646;DHT22;20857;47.808;12.482;2023-04-25T04:41:14;7.50;99.90
34646;DHT22;20857;47.808;12.482;2023-04-25T04:43:39;8.50;99.90
34646;DHT22;20857;47.808;12.482;2023-04-25T04:46:05;7.50;99.90
34646;DHT22;20857;47.808;12.482;2023-04-25T04:48:31;7.60;99.90
34646;DHT22;20857;47.808;12.482;2023-04-25T04:50:58;7.60;99.90
34646;DHT22;20857;47.808;12.482;2023-04-25T04:53:23;9.50;99.90
34646;DHT22;20857;47.808;12.482;2023-04-25T04:55:49;7.50;99.90
34646;DHT22;20857;47.808;12.482;2023-04-25T04:58:15;6.90;99.90
34646;DHT22;20857;47.808;12.482;2023-04-25T05:00:40;8.60;99.90
34646;DHT22;20857;47.808;12.482;2023-04-25T05:03:06;6.10;99.90
34646;DHT22;20857;47.808;12.482;2023-04-25T05:05:31;7.60;99.90
34646;DHT22;20857;47.808;12.482;2023-04-25T05:07:56;5.90;99.90
34646;DHT22;20857;47.808;12.482;2023-04-25T05:10:22;5.90;99.90
34646;DHT22;20857;47.808;12.482;2023-04-25T05:12:47;5.90;99.90
34646;DHT22;20857;47.808;12.482;2023-04-25T05:15:13;8.00;99.90
34646;DHT22;20857;47.808;12.482;2023-04-25T05:17:39;7.90;99.90
34646;DHT22;20857;47.808;12.482;2023-04-25T05:20:05;6.90;99.90
34646;DHT22;20857;47.808;12.482;2023-04-25T05:22:32;6.40;99.90
34646;DHT22;20857;47.808;12.482;2023-04-25T05:24:57;6.60;99.90
34646;DHT22;20857;47.808;12.482;2023-04-25T05:27:23;7.20;99.90
34646;DHT22;20857;47.808;12.482;2023-04-25T05:29:49;6.80;99.90
34646;DHT22;20857;47.808;12.482;2023-04-25T05:32:14;8.70;99.90
34646;DHT22;20857;47.808;12.482;2023-04-25T05:34:40;8.20;99.90
34646;DHT22;20857;47.808;12.482;2023-04-25T05:37:05;7.20;99.90
34646;DHT22;20857;47.808;12.482;2023-04-25T05:39:31;7.20;99.90
34646;DHT22;20857;47.808;12.482;2023-04-25T05:41:57;8.40;99.90
34646;DHT22;20857;47.808;12.482;2023-04-25T05:44:22;9.80;99.90
34646;DHT22;20857;47.808;12.482;2023-04-25T05:46:48;7.50;99.90
34646;DHT22;20857;47.808;12.482;2023-04-25T05:49:13;8.90;99.90
34646;DHT22;20857;47.808;12.482;2023-04-25T05:51:38;8.50;99.90
34646;DHT22;20857;47.808;12.482;2023-04-25T05:54:04;9.10;99.90
34646;DHT22;20857;47.808;12.482;2023-04-25T05:56:30;6.60;99.90
34646;DHT22;20857;47.808;12.482;2023-04-25T05:58:55;6.40;99.90
34646;DHT22;20857;47.808;12.482;2023-04-25T06:01:21;6.40;99.90
34646;DHT22;20857;47.808;12.482;2023-04-25T06:03:47;6.50;99.90
34646;DHT22;20857;47.808;12.482;2023-04-25T06:06:12;8.90;99.90
34646;DHT22;20857;47.808;12.482;2023-04-25T06:08:38;7.00;99.90
34646;DHT22;20857;47.808;12.482;2023-04-25T06:11:04;7.20;99.90
34646;DHT22;20857;47.808;12.482;2023-04-25T06:13:29;7.40;99.90
34646;DHT22;20857;47.808;12.482;2023-04-25T06:15:55;7.50;99.90
34646;DHT22;20857;47.808;12.482;2023-04-25T06:18:21;10.20;99.90
34646;DHT22;20857;47.808;12.482;2023-04-25T06:20:46;9.30;99.90
34646;DHT22;20857;47.808;12.482;2023-04-25T06:23:12;8.10;99.90
34646;DHT22;20857;47.808;12.482;2023-04-25T06:25:37;8.20;99.90
34646;DHT22;20857;47.808;12.482;2023-04-25T06:28:02;10.60;99.90
34646;DHT22;20857;47.808;12.482;2023-04-25T06:30:28;8.30;99.90
34646;DHT22;20857;47.808;12.482;2023-04-25T06:32:53;8.10;99.90
34646;DHT22;20857;47.808;12.482;2023-04-25T06:35:19;7.90;99.90
34646;DHT22;20857;47.808;12.482;2023-04-25T06:37:45;7.60;99.90
34646;DHT22;20857;47.808;12.482;2023-04-25T06:40:10;8.60;99.90
34646;DHT22;20857;47.808;12.482;2023-04-25T06:42:36;7.50;99.90
34646;DHT22;20857;47.808;12.482;2023-04-25T06:45:02;9.00;99.90
34646;DHT22;20857;47.808;12.482;2023-04-25T06:47:27;7.80;99.90
34646;DHT22;20857;47.808;12.482;2023-04-25T06:49:53;8.20;99.90
34646;DHT22;20857;47.808;12.482;2023-04-25T06:52:18;8.40;99.90
34646;DHT22;20857;47.808;12.482;2023-04-25T06:54:44;8.40;99.90
34646;DHT22;20857;47.808;12.482;2023-04-25T06:57:10;8.50;99.90
34646;DHT22;20857;47.808;12.482;2023-04-25T06:59:35;8.50;99.90
34646;DHT22;20857;47.808;12.482;2023-04-25T07:02:01;8.40;99.90
34646;DHT22;20857;47.808;12.482;2023-04-25T07:04:27;8.40;99.90
34646;DHT22;20857;47.808;12.482;2023-04-25T07:06:52;8.40;99.90
34646;DHT22;20857;47.808;12.482;2023-04-25T07:09:18;8.50;99.90
34646;DHT22;20857;47.808;12.482;2023-04-25T07:11:43;10.00;99.90
34646;DHT22;20857;47.808;12.482;2023-04-25T07:14:08;8.50;99.90
34646;DHT22;20857;47.808;12.482;2023-04-25T07:16:34;8.70;99.90
34646;DHT22;20857;47.808;12.482;2023-04-25T07:22:03;8.90;99.90
34646;DHT22;20857;47.808;12.482;2023-04-25T07:24:28;9.30;99.90
34646;DHT22;20857;47.808;12.482;2023-04-25T07:26:53;11.50;99.90
34646;DHT22;20857;47.808;12.482;2023-04-25T07:29:19;9.60;99.90
34646;DHT22;20857;47.808;12.482;2023-04-25T07:31:44;9.30;99.90
34646;DHT22;20857;47.808;12.482;2023-04-25T07:34:10;9.80;99.90
34646;DHT22;20857;47.808;12.482;2023-04-25T07:36:36;9.30;99.90
34646;DHT22;20857;47.808;12.482;2023-04-25T07:39:01;9.50;99.90
34646;DHT22;20857;47.808;12.482;2023-04-25T07:41:27;9.50;99.90
34646;DHT22;20857;47.808;12.482;2023-04-25T07:43:52;9.60;99.90
34646;DHT22;20857;47.808;12.482;2023-04-25T07:46:17;9.50;99.90
34646;DHT22;20857;47.808;12.482;2023-04-25T07:48:43;9.40;99.90
34646;DHT22;20857;47.808;12.482;2023-04-25T07:51:08;9.60;99.90
34646;DHT22;20857;47.808;12.482;2023-04-25T07:53:34;9.50;99.90
34646;DHT22;20857;47.808;12.482;2023-04-25T07:56:01;9.40;99.90
34646;DHT22;20857;47.808;12.482;2023-04-25T07:58:26;9.50;99.90
34646;DHT22;20857;47.808;12.482;2023-04-25T08:00:51;9.70;99.90
34646;DHT22;20857;47.808;12.482;2023-04-25T08:03:17;9.60;99.90
34646;DHT22;20857;47.808;12.482;2023-04-25T08:05:42;9.60;99.90
34646;DHT22;20857;47.808;12.482;2023-04-25T08:08:08;9.60;99.90
34646;DHT22;20857;47.808;12.482;2023-04-25T08:10:34;9.80;99.90
34646;DHT22;20857;47.808;12.482;2023-04-25T08:12:59;10.00;99.90
34646;DHT22;20857;47.808;12.482;2023-04-25T08:15:25;10.30;99.90
34646;DHT22;20857;47.808;12.482;2023-04-25T08:17:51;10.40;99.90
34646;DHT22;20857;47.808;12.482;2023-04-25T08:20:17;10.10;99.90
34646;DHT22;20857;47.808;12.482;2023-04-25T08:22:42;10.20;99.90
34646;DHT22;20857;47.808;12.482;2023-04-25T08:25:08;10.30;99.90
34646;DHT22;20857;47.808;12.482;2023-04-25T08:27:33;10.40;99.90
34646;DHT22;20857;47.808;12.482;2023-04-25T08:29:59;10.30;99.90
34646;DHT22;20857;47.808;12.482;2023-04-25T08:32:24;11.20;99.90
34646;DHT22;20857;47.808;12.482;2023-04-25T08:34:50;11.20;99.90
34646;DHT22;20857;47.808;12.482;2023-04-25T08:37:19;10.30;99.90
34646;DHT22;20857;47.808;12.482;2023-04-25T08:39:45;11.80;99.90
34646;DHT22;20857;47.808;12.482;2023-04-25T08:42:12;11.50;99.90
34646;DHT22;20857;47.808;12.482;2023-04-25T08:44:37;10.80;99.90
34646;DHT22;20857;47.808;12.482;2023-04-25T08:47:03;10.60;99.90
34646;DHT22;20857;47.808;12.482;2023-04-25T08:52:35;11.00;99.90
34646;DHT22;20857;47.808;12.482;2023-04-25T08:55:01;10.90;99.90
34646;DHT22;20857;47.808;12.482;2023-04-25T08:57:26;10.00;99.90
34646;DHT22;20857;47.808;12.482;2023-04-25T08:59:52;11.40;99.90
34646;DHT22;20857;47.808;12.482;2023-04-25T09:02:18;9.40;99.90
34646;DHT22;20857;47.808;12.482;2023-04-25T09:04:46;9.20;99.90
34646;DHT22;20857;47.808;12.482;2023-04-25T09:07:11;9.20;99.90
34646;DHT22;20857;47.808;12.482;2023-04-25T09:09:37;9.10;99.90
34646;DHT22;20857;47.808;12.482;2023-04-25T09:12:02;9.80;99.90
34646;DHT22;20857;47.808;12.482;2023-04-25T09:17:31;8.90;99.90
34646;DHT22;20857;47.808;12.482;2023-04-25T09:20:07;9.30;99.90
34646;DHT22;20857;47.808;12.482;2023-04-25T09:22:33;9.60;99.90
34646;DHT22;20857;47.808;12.482;2023-04-25T09:24:59;9.60;99.90
34646;DHT22;20857;47.808;12.482;2023-04-25T09:27:27;9.80;99.90
34646;DHT22;20857;47.808;12.482;2023-04-25T09:29:57;11.40;99.90
34646;DHT22;20857;47.808;12.482;2023-04-25T09:32:23;10.80;99.90
34646;DHT22;20857;47.808;12.482;2023-04-25T09:34:50;11.00;99.90
34646;DHT22;20857;47.808;12.482;2023-04-25T09:39:46;10.70;99.90
34646;DHT22;20857;47.808;12.482;2023-04-25T09:42:13;10.70;99.90
34646;DHT22;20857;47.808;12.482;2023-04-25T09:44:41;10.70;99.90
34646;DHT22;20857;47.808;12.482;2023-04-25T09:47:09;11.50;99.90
34646;DHT22;20857;47.808;12.482;2023-04-25T09:49:34;10.70;99.90
34646;DHT22;20857;47.808;12.482;2023-04-25T09:52:03;11.80;99.90
34646;DHT22;20857;47.808;12.482;2023-04-25T09:54:29;11.20;99.90
34646;DHT22;20857;47.808;12.482;2023-04-25T09:56:54;11.50;99.90
34646;DHT22;20857;47.808;12.482;2023-04-25T09:59:21;11.50;99.90
34646;DHT22;20857;47.808;12.482;2023-04-25T10:01:48;11.90;99.90
34646;DHT22;20857;47.808;12.482;2023-04-25T10:04:14;12.40;99.90
34646;DHT22;20857;47.808;12.482;2023-04-25T10:06:41;12.90;99.90
34646;DHT22;20857;47.808;12.482;2023-04-25T10:09:08;13.10;99.90
34646;DHT22;20857;47.808;12.482;2023-04-25T10:11:33;13.10;99.90
34646;DHT22;20857;47.808;12.482;2023-04-25T10:14:00;12.90;99.90
34646;DHT22;20857;47.808;12.482;2023-04-25T10:16:25;12.80;99.90
34646;DHT22;20857;47.808;12.482;2023-04-25T10:18:51;12.70;99.90
34646;DHT22;20857;47.808;12.482;2023-04-25T10:21:17;12.30;99.90
34646;DHT22;20857;47.808;12.482;2023-04-25T10:23:46;12.00;99.90
34646;DHT22;20857;47.808;12.482;2023-04-25T10:26:12;11.50;99.90
34646;DHT22;20857;47.808;12.482;2023-04-25T10:31:22;10.90;99.90
34646;DHT22;20857;47.808;12.482;2023-04-25T10:33:48;10.00;99.90
34646;DHT22;20857;47.808;12.482;2023-04-25T10:36:14;9.90;99.90
34646;DHT22;20857;47.808;12.482;2023-04-25T10:38:44;9.90;99.90
34646;DHT22;20857;47.808;12.482;2023-04-25T10:41:11;10.00;99.90
34646;DHT22;20857;47.808;12.482;2023-04-25T10:43:37;11.10;99.90
34646;DHT22;20857;47.808;12.482;2023-04-25T10:46:12;10.60;99.90
34646;DHT22;20857;47.808;12.482;2023-04-25T10:48:38;11.10;99.90
34646;DHT22;20857;47.808;12.482;2023-04-25T10:51:09;11.60;99.90
34646;DHT22;20857;47.808;12.482;2023-04-25T10:53:34;11.80;99.90
34646;DHT22;20857;47.808;12.482;2023-04-25T10:56:00;12.60;99.90
34646;DHT22;20857;47.808;12.482;2023-04-25T10:58:26;12.80;99.90
34646;DHT22;20857;47.808;12.482;2023-04-25T11:00:51;13.00;99.90
34646;DHT22;20857;47.808;12.482;2023-04-25T11:03:17;13.00;99.90
34646;DHT22;20857;47.808;12.482;2023-04-25T11:05:46;13.20;99.90
34646;DHT22;20857;47.808;12.482;2023-04-25T11:08:14;13.50;99.90
34646;DHT22;20857;47.808;12.482;2023-04-25T11:10:45;13.60;99.90
34646;DHT22;20857;47.808;12.482;2023-04-25T11:13:10;14.00;99.90
34646;DHT22;20857;47.808;12.482;2023-04-25T11:15:36;14.40;99.90
34646;DHT22;20857;47.808;12.482;2023-04-25T11:18:02;14.30;99.90
34646;DHT22;20857;47.808;12.482;2023-04-25T11:20:28;14.60;99.90
34646;DHT22;20857;47.808;12.482;2023-04-25T11:22:53;15.00;99.90
34646;DHT22;20857;47.808;12.482;2023-04-25T11:25:22;15.60;98.70
34646;DHT22;20857;47.808;12.482;2023-04-25T11:27:58;15.50;98.60
34646;DHT22;20857;47.808;12.482;2023-04-25T11:30:24;15.10;98.30
34646;DHT22;20857;47.808;12.482;2023-04-25T11:32:50;14.30;96.60
34646;DHT22;20857;47.808;12.482;2023-04-25T11:35:17;13.60;99.00
34646;DHT22;20857;47.808;12.482;2023-04-25T11:37:43;13.50;99.30
34646;DHT22;20857;47.808;12.482;2023-04-25T11:40:09;13.70;99.80
34646;DHT22;20857;47.808;12.482;2023-04-25T11:42:39;13.80;99.90
34646;DHT22;20857;47.808;12.482;2023-04-25T11:45:08;14.10;99.90
34646;DHT22;20857;47.808;12.482;2023-04-25T11:47:34;14.20;99.40
34646;DHT22;20857;47.808;12.482;2023-04-25T11:50:03;14.50;98.50
34646;DHT22;20857;47.808;12.482;2023-04-25T11:54:57;14.10;97.40
34646;DHT22;20857;47.808;12.482;2023-04-25T11:57:22;13.80;99.90
34646;DHT22;20857;47.808;12.482;2023-04-25T11:59:48;13.70;99.30
34646;DHT22;20857;47.808;12.482;2023-04-25T12:02:26;13.20;99.50
34646;DHT22;20857;47.808;12.482;2023-04-25T12:04:53;13.40;99.00
34646;DHT22;20857;47.808;12.482;2023-04-25T12:07:18;13.50;99.90
34646;DHT22;20857;47.808;12.482;2023-04-25T12:09:51;14.10;99.50
34646;DHT22;20857;47.808;12.482;2023-04-25T12:12:16;14.80;99.00
34646;DHT22;20857;47.808;12.482;2023-04-25T12:14:45;14.70;98.00
34646;DHT22;20857;47.808;12.482;2023-04-25T12:17:12;14.30;98.00
34646;DHT22;20857;47.808;12.482;2023-04-25T12:19:38;13.90;97.90
34646;DHT22;20857;47.808;12.482;2023-04-25T12:22:19;13.50;99.40
34646;DHT22;20857;47.808;12.482;2023-04-25T12:24:46;13.50;99.90
34646;DHT22;20857;47.808;12.482;2023-04-25T12:27:13;13.00;99.70
34646;DHT22;20857;47.808;12.482;2023-04-25T12:29:49;12.40;99.90
34646;DHT22;20857;47.808;12.482;2023-04-25T12:32:15;11.50;99.90
34646;DHT22;20857;47.808;12.482;2023-04-25T12:34:40;12.40;99.90
34646;DHT22;20857;47.808;12.482;2023-04-25T12:37:08;8.10;99.90
34646;DHT22;20857;47.808;12.482;2023-04-25T12:39:33;6.60;99.90
34646;DHT22;20857;47.808;12.482;2023-04-25T12:41:59;6.20;99.90
34646;DHT22;20857;47.808;12.482;2023-04-25T12:44:25;5.90;99.90
34646;DHT22;20857;47.808;12.482;2023-04-25T12:46:50;5.90;99.90
34646;DHT22;20857;47.808;12.482;2023-04-25T12:49:16;6.10;99.90
34646;DHT22;20857;47.808;12.482;2023-04-25T12:51:41;6.10;99.90
34646;DHT22;20857;47.808;12.482;2023-04-25T12:54:07;6.20;99.90
34646;DHT22;20857;47.808;12.482;2023-04-25T12:56:33;6.30;99.90
34646;DHT22;20857;47.808;12.482;2023-04-25T12:58:59;6.40;99.90
34646;DHT22;20857;47.808;12.482;2023-04-25T13:01:25;8.40;99.90
34646;DHT22;20857;47.808;12.482;2023-04-25T13:03:52;7.10;99.90
34646;DHT22;20857;47.808;12.482;2023-04-25T13:06:18;10.20;99.90
34646;DHT22;20857;47.808;12.482;2023-04-25T13:08:43;7.90;99.90
34646;DHT22;20857;47.808;12.482;2023-04-25T13:11:09;7.80;99.90
34646;DHT22;20857;47.808;12.482;2023-04-25T13:13:35;9.80;99.90
34646;DHT22;20857;47.808;12.482;2023-04-25T13:16:01;8.30;99.90
34646;DHT22;20857;47.808;12.482;2023-04-25T13:18:27;8.30;99.90
34646;DHT22;20857;47.808;12.482;2023-04-25T13:20:53;8.70;99.90
34646;DHT22;20857;47.808;12.482;2023-04-25T13:23:19;9.10;99.90
34646;DHT22;20857;47.808;12.482;2023-04-25T13:25:45;10.10;99.90
34646;DHT22;20857;47.808;12.482;2023-04-25T13:28:10;11.90;99.90
34646;DHT22;20857;47.808;12.482;2023-04-25T13:30:36;14.00;99.90
34646;DHT22;20857;47.808;12.482;2023-04-25T13:33:02;15.20;99.90
34646;DHT22;20857;47.808;12.482;2023-04-25T13:35:29;14.30;99.90
34646;DHT22;20857;47.808;12.482;2023-04-25T13:37:55;13.80;99.90
34646;DHT22;20857;47.808;12.482;2023-04-25T13:40:20;13.30;99.90
34646;DHT22;20857;47.808;12.482;2023-04-25T13:42:46;13.10;99.90
34646;DHT22;20857;47.808;12.482;2023-04-25T13:45:11;12.30;99.90
34646;DHT22;20857;47.808;12.482;2023-04-25T13:47:37;12.00;99.90
34646;DHT22;20857;47.808;12.482;2023-04-25T13:50:03;11.90;99.90
34646;DHT22;20857;47.808;12.482;2023-04-25T13:52:29;11.00;99.90
34646;DHT22;20857;47.808;12.482;2023-04-25T13:54:54;10.60;99.90
34646;DHT22;20857;47.808;12.482;2023-04-25T13:57:20;10.50;99.90
34646;DHT22;20857;47.808;12.482;2023-04-25T13:59:45;10.10;99.90
34646;DHT22;20857;47.808;12.482;2023-04-25T14:02:11;10.30;99.90
34646;DHT22;20857;47.808;12.482;2023-04-25T14:04:37;9.80;99.90
34646;DHT22;20857;47.808;12.482;2023-04-25T14:07:03;9.70;99.90
34646;DHT22;20857;47.808;12.482;2023-04-25T14:09:28;9.70;99.90
34646;DHT22;20857;47.808;12.482;2023-04-25T14:11:54;9.70;99.90
34646;DHT22;20857;47.808;12.482;2023-04-25T14:14:20;10.40;99.90
34646;DHT22;20857;47.808;12.482;2023-04-25T14:16:46;10.50;99.90
34646;DHT22;20857;47.808;12.482;2023-04-25T14:19:22;9.30;99.90
34646;DHT22;20857;47.808;12.482;2023-04-25T14:21:48;10.30;99.90
34646;DHT22;20857;47.808;12.482;2023-04-25T14:24:14;8.60;99.90
34646;DHT22;20857;47.808;12.482;2023-04-25T14:26:39;8.40;99.90
34646;DHT22;20857;47.808;12.482;2023-04-25T14:29:06;8.30;99.90
34646;DHT22;20857;47.808;12.482;2023-04-25T14:31:37;8.30;99.90
34646;DHT22;20857;47.808;12.482;2023-04-25T14:34:02;8.30;99.90
34646;DHT22;20857;47.808;12.482;2023-04-25T14:36:28;11.00;99.90
34646;DHT22;20857;47.808;12.482;2023-04-25T14:38:55;8.30;99.90
34646;DHT22;20857;47.808;12.482;2023-04-25T14:41:22;8.20;99.90
34646;DHT22;20857;47.808;12.482;2023-04-25T14:43:48;7.90;99.90
34646;DHT22;20857;47.808;12.482;2023-04-25T14:46:13;8.30;99.90
34646;DHT22;20857;47.808;12.482;2023-04-25T14:48:39;9.80;99.90
34646;DHT22;20857;47.808;12.482;2023-04-25T14:51:05;8.60;99.90
34646;DHT22;20857;47.808;12.482;2023-04-25T14:53:31;9.20;99.90
34646;DHT22;20857;47.808;12.482;2023-04-25T14:55:56;10.00;99.90
34646;DHT22;20857;47.808;12.482;2023-04-25T14:58:22;10.50;99.90
34646;DHT22;20857;47.808;12.482;2023-04-25T15:00:48;11.10;99.90
34646;DHT22;20857;47.808;12.482;2023-04-25T15:03:13;13.00;99.90
34646;DHT22;20857;47.808;12.482;2023-04-25T15:05:41;11.80;99.90
34646;DHT22;20857;47.808;12.482;2023-04-25T15:08:07;11.70;99.90
34646;DHT22;20857;47.808;12.482;2023-04-25T15:10:33;12.00;99.90
34646;DHT22;20857;47.808;12.482;2023-04-25T15:12:58;10.70;99.90
34646;DHT22;20857;47.808;12.482;2023-04-25T15:15:24;11.50;99.90
34646;DHT22;20857;47.808;12.482;2023-04-25T15:17:50;7.90;99.90
34646;DHT22;20857;47.808;12.482;2023-04-25T15:20:15;9.20;99.90
34646;DHT22;20857;47.808;12.482;2023-04-25T15:22:42;6.90;99.90
34646;DHT22;20857;47.808;12.482;2023-04-25T15:25:08;6.70;99.90
34646;DHT22;20857;47.808;12.482;2023-04-25T15:27:34;6.60;99.90
34646;DHT22;20857;47.808;12.482;2023-04-25T15:30:06;6.40;99.90
34646;DHT22;20857;47.808;12.482;2023-04-25T15:32:32;6.20;99.90
34646;DHT22;20857;47.808;12.482;2023-04-25T15:34:57;6.30;99.90
34646;DHT22;20857;47.808;12.482;2023-04-25T15:37:23;6.20;99.90
34646;DHT22;20857;47.808;12.482;2023-04-25T15:39:51;6.30;99.90